Time;durP1;ratioP1;P1;durP2;ratioP2;P2;SDS_P1;SDS_P2;PMS_P1;PMS_P2;Temp;Humidity;BMP_temperature;BMP_pressure;BME280_temperature;BME280_humidity;BME280_pressure;Samples;Min_cycle;Max_cycle;Signal;HPM_P1;HPM_P2
2021/12/29 00:02:03;;;;;;;;;11.33;5.00;;;;;;;;5041557;28;45476;-69
2021/12/29 00:04:29;;;;;;;;;8.00;4.00;;;;;;;;5036884;28;45450;-69
2021/12/29 00:06:56;;;;;;;;;6.50;4.00;;;;;;;;5039582;28;45374;-70
2021/12/29 00:09:22;;;;;;;;;6.75;5.00;;;;;;;;5042541;28;45698;-69
2021/12/29 00:11:47;;;;;;;;;7.75;4.25;;;;;;;;5035614;28;45276;-70
2021/12/29 00:14:12;;;;;;;;;9.33;5.00;;;;;;;;5023135;28;45604;-69
2021/12/29 00:16:37;;;;;;;;;8.00;2.67;;;;;;;;5037402;28;45781;-69
2021/12/29 00:19:03;;;;;;;;;6.67;2.33;;;;;;;;5038814;28;46542;-70
2021/12/29 00:21:29;;;;;;;;;6.25;4.00;;;;;;;;5036065;28;45791;-69
2021/12/29 00:23:58;;;;;;;;;8.00;4.75;;;;;;;;5034883;28;45560;-70
2021/12/29 00:26:24;;;;;;;;;10.00;6.75;;;;;;;;5035365;28;45451;-70
2021/12/29 00:28:49;;;;;;;;;7.25;2.75;;;;;;;;5035088;28;45603;-70
2021/12/29 00:31:14;;;;;;;;;5.33;4.00;;;;;;;;5034685;28;45667;-70
2021/12/29 00:33:39;;;;;;;;;8.67;4.00;;;;;;;;5035433;28;45323;-70
2021/12/29 00:36:05;;;;;;;;;7.33;4.33;;;;;;;;5034660;28;45541;-70
2021/12/29 00:38:30;;;;;;;;;9.67;4.00;;;;;;;;5034724;28;45388;-69
2021/12/29 00:40:55;;;;;;;;;6.33;4.67;;;;;;;;5034988;28;45716;-70
2021/12/29 00:43:20;;;;;;;;;8.00;4.33;;;;;;;;5035440;28;45315;-70
2021/12/29 00:45:47;;;;;;;;;8.33;5.00;;;;;;;;5035892;28;45382;-70
2021/12/29 00:48:13;;;;;;;;;8.00;3.00;;;;;;;;5034370;28;46485;-69
2021/12/29 00:50:39;;;;;;;;;9.75;4.25;;;;;;;;5034856;28;46018;-70
2021/12/29 00:53:04;;;;;;;;;9.75;5.00;;;;;;;;5018348;28;45497;-69
2021/12/29 00:55:29;;;;;;;;;5.33;3.33;;;;;;;;5015889;28;45389;-69
2021/12/29 00:57:55;;;;;;;;;9.33;4.00;;;;;;;;5034772;28;45465;-70
2021/12/29 01:00:21;;;;;;;;;4.00;2.33;;;;;;;;5034747;28;45309;-70
2021/12/29 01:02:47;;;;;;;;;4.25;3.50;;;;;;;;5021104;28;45554;-70
2021/12/29 01:05:14;;;;;;;;;10.50;5.50;;;;;;;;5034835;28;45485;-70
2021/12/29 01:07:39;;;;;;;;;7.25;4.00;;;;;;;;5033643;28;46456;-70
2021/12/29 01:10:05;;;;;;;;;5.00;3.75;;;;;;;;5034366;28;45342;-70
2021/12/29 01:12:30;;;;;;;;;8.00;5.25;;;;;;;;5021473;28;45369;-70
2021/12/29 01:14:56;;;;;;;;;8.25;4.25;;;;;;;;5034952;28;49569;-70
2021/12/29 01:17:23;;;;;;;;;10.00;4.50;;;;;;;;5034063;28;45635;-70
2021/12/29 01:19:50;;;;;;;;;7.00;4.50;;;;;;;;5034163;28;46220;-70
2021/12/29 01:22:15;;;;;;;;;8.75;4.00;;;;;;;;5017366;28;45360;-70
2021/12/29 01:24:42;;;;;;;;;8.25;4.50;;;;;;;;5020996;28;45475;-69
2021/12/29 01:27:08;;;;;;;;;3.00;2.50;;;;;;;;5034291;28;47356;-70
2021/12/29 01:29:33;;;;;;;;;9.25;3.75;;;;;;;;5034186;28;45441;-70
2021/12/29 01:31:58;;;;;;;;;8.00;3.00;;;;;;;;5034362;28;45443;-70
2021/12/29 01:34:23;;;;;;;;;9.50;4.25;;;;;;;;5033977;28;45479;-70
2021/12/29 01:36:49;;;;;;;;;10.00;5.00;;;;;;;;5034511;28;46296;-70
2021/12/29 01:39:15;;;;;;;;;9.00;5.00;;;;;;;;5034206;28;45515;-70
2021/12/29 01:41:41;;;;;;;;;12.25;3.50;;;;;;;;5033832;28;45541;-70
2021/12/29 01:44:08;;;;;;;;;8.25;3.25;;;;;;;;5034031;28;45303;-70
2021/12/29 01:46:33;;;;;;;;;15.50;6.25;;;;;;;;5033276;28;46595;-69
2021/12/29 01:48:58;;;;;;;;;9.75;3.00;;;;;;;;5034052;28;45260;-70
2021/12/29 01:51:24;;;;;;;;;4.33;3.00;;;;;;;;5034672;28;45750;-70
2021/12/29 01:54:02;;;;;;;;;7.00;4.00;;;;;;;;5033199;28;45482;-70
2021/12/29 01:56:32;;;;;;;;;7.00;4.00;;;;;;;;5033454;28;45680;-70
2021/12/29 01:58:57;;;;;;;;;3.75;3.25;;;;;;;;5033876;28;45459;-69
2021/12/29 02:01:22;;;;;;;;;12.00;3.00;;;;;;;;5034198;28;45599;-70
2021/12/29 02:03:48;;;;;;;;;5.25;4.00;;;;;;;;5033419;28;45344;-70
2021/12/29 02:06:13;;;;;;;;;4.00;2.00;;;;;;;;5033380;28;45501;-70
2021/12/29 02:08:38;;;;;;;;;5.00;4.00;;;;;;;;5033898;28;45322;-70
2021/12/29 02:11:06;;;;;;;;;3.67;3.67;;;;;;;;5033669;28;45386;-70
2021/12/29 02:13:31;;;;;;;;;8.25;3.75;;;;;;;;5033383;28;45377;-70
2021/12/29 02:15:57;;;;;;;;;13.00;5.00;;;;;;;;5034073;28;45450;-69
2021/12/29 02:18:25;;;;;;;;;7.33;4.00;;;;;;;;5033822;28;45477;-70
2021/12/29 02:20:52;;;;;;;;;7.25;6.00;;;;;;;;5032549;28;45378;-70
2021/12/29 02:23:28;;;;;;;;;4.00;3.00;;;;;;;;5032993;28;45525;-70
2021/12/29 02:25:55;;;;;;;;;11.25;4.75;;;;;;;;5033075;28;46721;-70
2021/12/29 02:28:29;;;;;;;;;3.00;3.00;;;;;;;;5033698;28;45810;-70
2021/12/29 02:30:55;;;;;;;;;9.00;4.50;;;;;;;;5030286;28;45441;-69
2021/12/29 02:33:21;;;;;;;;;6.50;3.00;;;;;;;;5033120;28;45485;-70
2021/12/29 02:35:47;;;;;;;;;10.75;4.50;;;;;;;;5033010;28;46510;-70
2021/12/29 02:38:23;;;;;;;;;11.00;4.00;;;;;;;;5032849;28;45453;-70
2021/12/29 02:40:49;;;;;;;;;6.50;4.25;;;;;;;;5033773;28;45383;-70
2021/12/29 02:43:19;;;;;;;;;8.50;3.00;;;;;;;;5033936;28;45461;-70
2021/12/29 02:45:49;;;;;;;;;5.50;4.25;;;;;;;;5033289;28;45477;-70
2021/12/29 02:48:14;;;;;;;;;11.25;3.75;;;;;;;;5033329;28;45353;-70
2021/12/29 02:50:41;;;;;;;;;9.00;5.67;;;;;;;;5033507;28;45443;-70
2021/12/29 02:53:06;;;;;;;;;8.50;4.75;;;;;;;;5031983;28;45449;-70
2021/12/29 02:55:32;;;;;;;;;8.33;5.00;;;;;;;;5032388;28;46482;-70
2021/12/29 02:57:57;;;;;;;;;6.67;4.00;;;;;;;;5034419;28;45347;-70
2021/12/29 03:00:22;;;;;;;;;6.67;3.00;;;;;;;;5036279;28;45299;-70
2021/12/29 03:02:47;;;;;;;;;8.00;3.67;;;;;;;;5022531;28;45566;-70
2021/12/29 03:05:12;;;;;;;;;5.50;3.75;;;;;;;;5036278;28;46154;-69
2021/12/29 03:07:38;;;;;;;;;9.00;3.00;;;;;;;;5036695;28;45443;-70
2021/12/29 03:10:04;;;;;;;;;5.00;2.00;;;;;;;;5035784;28;45503;-70
2021/12/29 03:12:29;;;;;;;;;5.50;5.00;;;;;;;;5036048;28;45530;-70
2021/12/29 03:14:57;;;;;;;;;9.50;4.25;;;;;;;;5035657;28;46502;-70
2021/12/29 03:17:22;;;;;;;;;9.75;5.00;;;;;;;;5036154;28;45702;-70
2021/12/29 03:19:47;;;;;;;;;9.00;3.00;;;;;;;;5036035;28;45492;-70
2021/12/29 03:22:13;;;;;;;;;8.00;4.00;;;;;;;;5036799;28;45370;-70
2021/12/29 03:24:38;;;;;;;;;4.00;3.00;;;;;;;;5035593;28;47236;-70
2021/12/29 03:27:03;;;;;;;;;6.67;4.00;;;;;;;;5043096;28;45414;-70
2021/12/29 03:29:28;;;;;;;;;5.00;3.00;;;;;;;;5043267;28;45461;-70
2021/12/29 03:31:54;;;;;;;;;7.67;4.33;;;;;;;;5035894;28;45437;-70
2021/12/29 03:34:19;;;;;;;;;8.67;3.00;;;;;;;;5036003;28;46004;-70
2021/12/29 03:36:44;;;;;;;;;7.33;3.00;;;;;;;;5036522;28;45316;-70
2021/12/29 03:39:10;;;;;;;;;7.33;4.67;;;;;;;;5035983;28;45446;-70
2021/12/29 03:41:36;;;;;;;;;8.25;3.75;;;;;;;;5035988;28;45445;-70
2021/12/29 03:44:01;;;;;;;;;9.75;5.00;;;;;;;;5035222;28;45489;-70
2021/12/29 03:46:27;;;;;;;;;10.33;5.00;;;;;;;;5036132;28;45786;-69
2021/12/29 03:48:53;;;;;;;;;8.00;2.50;;;;;;;;5031964;28;45560;-70
2021/12/29 03:51:18;;;;;;;;;8.00;3.67;;;;;;;;5035719;28;45538;-70
2021/12/29 03:53:43;;;;;;;;;8.67;3.00;;;;;;;;5035196;28;45460;-70
2021/12/29 03:56:08;;;;;;;;;6.00;3.33;;;;;;;;5035825;28;45568;-70
2021/12/29 03:58:34;;;;;;;;;5.50;3.25;;;;;;;;5017186;28;45399;-70
2021/12/29 04:01:10;;;;;;;;;6.00;2.00;;;;;;;;5035966;28;46517;-70
2021/12/29 04:03:35;;;;;;;;;5.75;2.50;;;;;;;;5034784;28;45740;-70
2021/12/29 04:06:00;;;;;;;;;3.00;2.00;;;;;;;;5035462;28;45488;-70
2021/12/29 04:08:26;;;;;;;;;8.33;2.33;;;;;;;;5018252;28;45420;-70
2021/12/29 04:10:51;;;;;;;;;8.00;3.00;;;;;;;;5035657;28;45459;-70
2021/12/29 04:13:16;;;;;;;;;8.33;3.67;;;;;;;;5035040;28;46737;-70
2021/12/29 04:15:41;;;;;;;;;7.67;3.33;;;;;;;;5035157;28;45584;-70
2021/12/29 04:18:15;;;;;;;;;6.00;3.00;;;;;;;;5035362;28;45481;-70
2021/12/29 04:20:57;;;;;;;;;4.75;2.75;;;;;;;;5035462;28;45560;-70
2021/12/29 04:23:25;;;;;;;;;9.75;3.75;;;;;;;;5019616;28;47094;-70
2021/12/29 04:25:53;;;;;;;;;6.75;3.25;;;;;;;;5034781;28;45747;-69
2021/12/29 04:28:23;;;;;;;;;3.00;2.00;;;;;;;;5035111;28;45335;-70
2021/12/29 04:30:48;;;;;;;;;5.25;3.00;;;;;;;;5035302;28;45510;-70
2021/12/29 04:33:15;;;;;;;;;5.25;2.00;;;;;;;;5034796;28;48578;-69
2021/12/29 04:35:40;;;;;;;;;9.00;3.00;;;;;;;;5034375;28;45703;-70
2021/12/29 04:38:06;;;;;;;;;5.00;4.25;;;;;;;;5035256;28;45334;-69
2021/12/29 04:40:31;;;;;;;;;5.75;3.50;;;;;;;;5034976;28;45417;-70
2021/12/29 04:42:56;;;;;;;;;5.50;4.00;;;;;;;;5021149;28;47947;-69
2021/12/29 04:45:21;;;;;;;;;4.00;3.00;;;;;;;;5034638;28;45413;-70
2021/12/29 04:47:48;;;;;;;;;4.00;2.00;;;;;;;;5034953;28;45458;-70
2021/12/29 04:51:04;;;;;;;;;3.00;3.00;;;;;;;;5034581;28;45350;-70
2021/12/29 04:53:05;;;;;;;;;6.75;2.00;;;;;;;;5028145;28;46533;-69
2021/12/29 04:55:30;;;;;;;;;6.25;3.25;;;;;;;;5030676;28;45429;-69
2021/12/29 04:57:56;;;;;;;;;7.50;2.50;;;;;;;;5035653;28;45439;-70
2021/12/29 05:00:24;;;;;;;;;8.50;4.00;;;;;;;;5023377;28;46357;-70
2021/12/29 05:02:49;;;;;;;;;5.00;3.00;;;;;;;;5033911;28;45443;-70
2021/12/29 05:05:40;;;;;;;;;2.50;2.25;;;;;;;;5034167;28;45473;-70
2021/12/29 05:10:51;;;;;;;;;4.00;3.75;;;;;;;;5034139;28;45374;-70
2021/12/29 05:13:17;;;;;;;;;6.50;2.50;;;;;;;;5034286;28;45638;-70
2021/12/29 05:15:42;;;;;;;;;4.25;2.75;;;;;;;;5034762;28;45509;-70
2021/12/29 05:18:07;;;;;;;;;2.00;2.00;;;;;;;;5034520;28;45372;-69
2021/12/29 05:20:33;;;;;;;;;2.00;2.00;;;;;;;;5032763;28;45494;-70
2021/12/29 05:22:59;;;;;;;;;5.00;2.25;;;;;;;;5034613;28;45535;-70
2021/12/29 05:25:24;;;;;;;;;2.00;2.00;;;;;;;;5033738;28;46311;-70
2021/12/29 05:27:50;;;;;;;;;4.25;2.75;;;;;;;;5021323;28;45331;-70
2021/12/29 05:30:15;;;;;;;;;4.50;2.50;;;;;;;;5033960;28;45417;-70
2021/12/29 05:32:40;;;;;;;;;5.25;2.00;;;;;;;;5033250;28;45508;-70
2021/12/29 05:35:06;;;;;;;;;4.67;2.00;;;;;;;;5033957;28;45484;-69
2021/12/29 05:37:32;;;;;;;;;2.00;2.00;;;;;;;;5033881;28;45735;-70
2021/12/29 05:39:57;;;;;;;;;2.25;2.00;;;;;;;;5034014;28;45588;-70
2021/12/29 05:42:22;;;;;;;;;4.67;2.00;;;;;;;;5033816;28;45379;-69
2021/12/29 05:44:47;;;;;;;;;1.00;1.00;;;;;;;;5034475;28;45339;-69
2021/12/29 05:47:13;;;;;;;;;4.33;2.33;;;;;;;;5034109;28;45526;-70
2021/12/29 05:49:38;;;;;;;;;9.33;4.00;;;;;;;;5033860;28;45546;-70
2021/12/29 05:52:03;;;;;;;;;2.50;1.75;;;;;;;;5030077;28;47022;-70
2021/12/29 05:54:28;;;;;;;;;4.50;4.00;;;;;;;;5033404;28;45379;-70
2021/12/29 05:56:54;;;;;;;;;1.50;1.00;;;;;;;;5033711;28;45528;-69
2021/12/29 05:59:19;;;;;;;;;2.75;1.00;;;;;;;;5033517;28;45654;-70
2021/12/29 06:01:44;;;;;;;;;6.00;2.00;;;;;;;;5017283;28;47361;-70
2021/12/29 06:04:10;;;;;;;;;2.50;2.25;;;;;;;;5033974;28;45604;-70
2021/12/29 06:06:35;;;;;;;;;1.00;1.00;;;;;;;;5034068;28;45516;-70
2021/12/29 06:09:01;;;;;;;;;1.67;1.33;;;;;;;;5033270;28;45407;-70
2021/12/29 06:11:26;;;;;;;;;2.67;2.67;;;;;;;;5033410;28;46658;-70
2021/12/29 06:13:51;;;;;;;;;4.00;1.75;;;;;;;;5034128;28;45549;-70
2021/12/29 06:16:16;;;;;;;;;2.00;2.00;;;;;;;;5032959;28;45494;-69
2021/12/29 06:18:42;;;;;;;;;2.00;2.00;;;;;;;;5034007;28;45417;-70
2021/12/29 06:21:07;;;;;;;;;3.00;3.00;;;;;;;;5032649;28;45447;-70
2021/12/29 06:23:32;;;;;;;;;3.33;3.00;;;;;;;;5033601;28;45534;-70
2021/12/29 06:25:57;;;;;;;;;3.00;3.00;;;;;;;;5033902;28;45707;-70
2021/12/29 06:28:22;;;;;;;;;2.00;2.00;;;;;;;;5033950;28;45501;-70
2021/12/29 06:30:48;;;;;;;;;5.67;3.00;;;;;;;;5033698;28;45500;-70
2021/12/29 06:33:13;;;;;;;;;1.67;1.00;;;;;;;;5035928;28;45516;-70
2021/12/29 06:35:38;;;;;;;;;1.00;1.00;;;;;;;;5036385;28;45330;-70
2021/12/29 06:38:04;;;;;;;;;4.25;2.75;;;;;;;;5036496;28;45754;-70
2021/12/29 06:40:29;;;;;;;;;2.33;2.33;;;;;;;;5036789;28;46332;-70
2021/12/29 06:42:54;;;;;;;;;2.50;2.00;;;;;;;;5037037;28;45370;-70
2021/12/29 06:45:19;;;;;;;;;3.00;2.33;;;;;;;;5036936;28;45453;-70
2021/12/29 06:47:45;;;;;;;;;3.00;2.50;;;;;;;;5037001;28;45430;-70
2021/12/29 06:50:10;;;;;;;;;4.33;2.67;;;;;;;;5036264;28;45437;-70
2021/12/29 06:52:35;;;;;;;;;2.00;2.00;;;;;;;;5035307;28;45311;-70
2021/12/29 06:55:01;;;;;;;;;3.00;3.00;;;;;;;;5037347;28;45357;-70
2021/12/29 06:57:26;;;;;;;;;3.50;2.00;;;;;;;;5036942;28;45474;-70
2021/12/29 06:59:52;;;;;;;;;2.00;2.00;;;;;;;;5036293;28;46448;-70
2021/12/29 07:02:18;;;;;;;;;2.75;1.75;;;;;;;;5035285;28;45390;-70
2021/12/29 07:04:44;;;;;;;;;3.00;2.00;;;;;;;;5036964;28;45344;-70
2021/12/29 07:07:09;;;;;;;;;3.00;2.00;;;;;;;;5035206;28;45551;-70
2021/12/29 07:09:34;;;;;;;;;1.00;1.00;;;;;;;;5035999;28;46541;-70
2021/12/29 07:11:59;;;;;;;;;3.25;2.75;;;;;;;;5035414;28;45720;-70
2021/12/29 07:14:25;;;;;;;;;2.00;2.00;;;;;;;;5036142;28;45468;-70
2021/12/29 07:16:50;;;;;;;;;4.00;3.00;;;;;;;;5035648;28;45602;-70
2021/12/29 07:19:16;;;;;;;;;1.33;1.33;;;;;;;;5036126;28;45402;-70
2021/12/29 07:21:41;;;;;;;;;1.50;1.50;;;;;;;;5036026;28;45439;-70
2021/12/29 07:24:07;;;;;;;;;3.00;3.00;;;;;;;;5036792;28;45470;-70
2021/12/29 07:26:32;;;;;;;;;1.75;1.75;;;;;;;;5035959;28;45293;-70
2021/12/29 07:28:58;;;;;;;;;4.00;3.50;;;;;;;;5035277;28;45574;-70
2021/12/29 07:31:25;;;;;;;;;2.50;2.50;;;;;;;;5035227;28;45468;-70
2021/12/29 07:33:50;;;;;;;;;2.00;2.00;;;;;;;;5036074;28;45238;-70
2021/12/29 07:36:17;;;;;;;;;3.00;2.00;;;;;;;;5035262;28;45547;-70
2021/12/29 07:38:42;;;;;;;;;2.00;2.00;;;;;;;;5035415;28;45815;-70
2021/12/29 07:41:08;;;;;;;;;3.00;3.00;;;;;;;;5035784;28;45370;-70
2021/12/29 07:43:35;;;;;;;;;3.00;3.00;;;;;;;;5034364;28;45522;-70
2021/12/29 07:46:01;;;;;;;;;2.00;2.00;;;;;;;;5036529;28;45593;-68
2021/12/29 07:48:29;;;;;;;;;2.75;2.75;;;;;;;;5035681;28;46614;-70
2021/12/29 07:50:54;;;;;;;;;5.50;3.25;;;;;;;;5034724;28;47735;-70
2021/12/29 07:53:20;;;;;;;;;4.00;4.00;;;;;;;;5035434;28;45306;-71
2021/12/29 07:55:46;;;;;;;;;4.75;3.00;;;;;;;;5035026;28;45539;-71
2021/12/29 07:58:11;;;;;;;;;5.00;3.00;;;;;;;;5050905;28;45460;-70
2021/12/29 08:00:36;;;;;;;;;4.00;4.00;;;;;;;;5022704;28;45283;-71
2021/12/29 08:03:03;;;;;;;;;4.67;4.00;;;;;;;;5035049;28;45498;-70
2021/12/29 08:05:28;;;;;;;;;7.00;4.00;;;;;;;;5034327;28;45556;-70
2021/12/29 08:07:54;;;;;;;;;5.00;5.00;;;;;;;;5017344;28;46434;-70
2021/12/29 08:10:19;;;;;;;;;6.33;5.00;;;;;;;;5018295;28;45381;-70
2021/12/29 08:12:44;;;;;;;;;9.00;6.75;;;;;;;;5021699;28;45654;-70
2021/12/29 08:15:10;;;;;;;;;5.00;5.00;;;;;;;;5035160;28;45359;-70
2021/12/29 08:17:36;;;;;;;;;5.50;3.75;;;;;;;;5027104;28;46002;-72
2021/12/29 08:20:03;;;;;;;;;8.00;5.00;;;;;;;;5034333;28;45463;-71
2021/12/29 08:22:28;;;;;;;;;4.00;4.00;;;;;;;;5033883;28;45292;-70
2021/12/29 08:24:53;;;;;;;;;7.00;4.00;;;;;;;;5034414;28;45426;-70
2021/12/29 08:27:18;;;;;;;;;6.33;6.33;;;;;;;;5034869;28;46117;-69
2021/12/29 08:29:43;;;;;;;;;7.00;5.00;;;;;;;;5034668;28;45381;-69
2021/12/29 08:32:09;;;;;;;;;6.33;5.00;;;;;;;;5034769;28;45327;-70
2021/12/29 08:34:34;;;;;;;;;5.00;5.00;;;;;;;;5034232;28;45390;-69
2021/12/29 08:37:00;;;;;;;;;4.00;4.00;;;;;;;;5034658;28;46346;-70
2021/12/29 08:39:25;;;;;;;;;5.00;5.00;;;;;;;;5034958;28;45462;-70
2021/12/29 08:41:50;;;;;;;;;11.00;6.75;;;;;;;;5033962;28;45395;-70
2021/12/29 08:44:16;;;;;;;;;10.75;9.75;;;;;;;;5033636;28;45434;-70
2021/12/29 08:46:41;;;;;;;;;7.00;4.00;;;;;;;;5034570;28;46687;-70
2021/12/29 08:49:07;;;;;;;;;4.25;4.25;;;;;;;;5033719;28;45349;-70
2021/12/29 08:51:32;;;;;;;;;10.75;6.75;;;;;;;;5034952;28;45473;-70
2021/12/29 08:53:59;;;;;;;;;7.75;7.75;;;;;;;;5033461;28;45550;-70
2021/12/29 08:56:25;;;;;;;;;8.00;5.25;;;;;;;;5034349;28;45487;-70
2021/12/29 08:58:51;;;;;;;;;10.00;9.75;;;;;;;;5033044;28;45448;-70
2021/12/29 09:01:16;;;;;;;;;7.00;6.00;;;;;;;;5034858;28;45386;-70
2021/12/29 09:03:42;;;;;;;;;7.50;4.25;;;;;;;;5034618;28;45498;-69
2021/12/29 09:06:08;;;;;;;;;8.00;6.00;;;;;;;;5034413;28;45734;-70
2021/12/29 09:08:33;;;;;;;;;6.50;5.25;;;;;;;;5034426;28;45464;-70
2021/12/29 09:10:58;;;;;;;;;6.00;6.00;;;;;;;;5034232;28;45763;-70
2021/12/29 09:13:23;;;;;;;;;7.67;6.00;;;;;;;;5034403;28;45396;-70
2021/12/29 09:15:56;;;;;;;;;7.25;7.25;;;;;;;;5034831;28;45428;-70
2021/12/29 09:18:23;;;;;;;;;6.25;4.00;;;;;;;;5032434;28;45497;-70
2021/12/29 09:20:48;;;;;;;;;8.00;5.25;;;;;;;;5033901;28;45221;-70
2021/12/29 09:23:15;;;;;;;;;7.75;5.75;;;;;;;;5034141;28;45505;-70
2021/12/29 09:25:41;;;;;;;;;7.75;6.00;;;;;;;;5033786;28;45624;-70
2021/12/29 09:28:07;;;;;;;;;5.50;5.50;;;;;;;;5034016;28;46058;-70
2021/12/29 09:30:33;;;;;;;;;5.50;5.50;;;;;;;;5035091;28;45379;-70
2021/12/29 09:33:00;;;;;;;;;9.75;7.50;;;;;;;;5019200;28;45475;-70
2021/12/29 09:35:25;;;;;;;;;8.75;6.75;;;;;;;;5033453;28;46394;-71
2021/12/29 09:37:51;;;;;;;;;8.67;4.67;;;;;;;;5033753;28;45880;-70
2021/12/29 09:40:18;;;;;;;;;12.00;10.25;;;;;;;;5033960;28;45749;-70
2021/12/29 09:42:44;;;;;;;;;12.75;9.50;;;;;;;;5033800;28;46028;-70
2021/12/29 09:45:09;;;;;;;;;6.75;6.00;;;;;;;;5034408;28;45843;-70
2021/12/29 09:47:35;;;;;;;;;6.00;5.25;;;;;;;;5030923;28;45676;-70
2021/12/29 09:50:03;;;;;;;;;8.75;4.75;;;;;;;;5034908;28;45449;-70
2021/12/29 09:52:33;;;;;;;;;8.75;5.50;;;;;;;;5024718;28;45362;-70
2021/12/29 09:54:59;;;;;;;;;5.00;4.00;;;;;;;;5029968;28;45447;-70
2021/12/29 09:57:24;;;;;;;;;6.75;6.75;;;;;;;;5032596;28;45449;-70
2021/12/29 09:59:50;;;;;;;;;9.50;5.75;;;;;;;;5032268;28;45276;-70
2021/12/29 10:02:15;;;;;;;;;5.25;4.75;;;;;;;;5014840;28;45481;-70
2021/12/29 10:04:40;;;;;;;;;6.00;5.50;;;;;;;;5030405;28;46730;-69
2021/12/29 10:07:16;;;;;;;;;7.67;7.00;;;;;;;;5020836;28;46110;-70
2021/12/29 10:09:41;;;;;;;;;5.50;5.00;;;;;;;;5032078;28;45525;-69
2021/12/29 10:12:08;;;;;;;;;6.00;6.00;;;;;;;;5033880;28;45519;-69
2021/12/29 10:14:33;;;;;;;;;10.00;6.75;;;;;;;;5031064;28;45431;-70
2021/12/29 10:16:58;;;;;;;;;4.00;4.00;;;;;;;;5014702;28;45673;-69
2021/12/29 10:19:23;;;;;;;;;10.67;9.00;;;;;;;;5030510;28;45644;-69
2021/12/29 10:21:49;;;;;;;;;8.33;7.33;;;;;;;;5048103;28;45471;-69
2021/12/29 10:24:19;;;;;;;;;12.75;7.25;;;;;;;;5031348;28;45543;-70
2021/12/29 10:26:46;;;;;;;;;8.75;8.50;;;;;;;;5031275;28;45496;-70
2021/12/29 10:29:16;;;;;;;;;13.50;12.00;;;;;;;;5018885;28;45526;-70
2021/12/29 10:32:08;;;;;;;;;11.25;9.50;;;;;;;;5031687;28;45415;-70
2021/12/29 10:34:33;;;;;;;;;11.25;9.25;;;;;;;;5024702;28;46445;-70
2021/12/29 10:37:07;;;;;;;;;12.25;10.00;;;;;;;;5033561;28;45470;-70
2021/12/29 10:39:34;;;;;;;;;13.75;10.50;;;;;;;;5034091;28;45559;-69
2021/12/29 10:42:02;;;;;;;;;11.75;11.25;;;;;;;;5030788;28;45818;-70
2021/12/29 10:44:27;;;;;;;;;12.00;10.75;;;;;;;;5031073;28;45784;-69
2021/12/29 10:46:56;;;;;;;;;12.67;11.33;;;;;;;;5014106;28;45742;-69
2021/12/29 10:49:22;;;;;;;;;7.25;7.00;;;;;;;;5031373;28;45413;-69
2021/12/29 10:51:47;;;;;;;;;10.75;9.00;;;;;;;;5033710;28;45449;-69
2021/12/29 10:54:14;;;;;;;;;14.50;10.00;;;;;;;;5030916;28;45470;-69
2021/12/29 10:56:42;;;;;;;;;12.75;7.50;;;;;;;;5036292;28;45526;-71
2021/12/29 10:59:15;;;;;;;;;13.50;9.50;;;;;;;;5043011;28;45417;-71
2021/12/29 11:01:40;;;;;;;;;14.00;12.25;;;;;;;;5033094;28;45533;-70
2021/12/29 11:04:05;;;;;;;;;16.25;10.75;;;;;;;;5041250;28;46863;-69
2021/12/29 11:06:30;;;;;;;;;11.67;10.00;;;;;;;;5032468;28;45438;-69
2021/12/29 11:08:58;;;;;;;;;7.00;7.00;;;;;;;;5034257;28;45831;-69
2021/12/29 11:11:32;;;;;;;;;10.25;8.25;;;;;;;;5031457;28;45346;-71
2021/12/29 11:14:16;;;;;;;;;12.75;9.75;;;;;;;;5034806;28;46277;-70
2021/12/29 11:16:42;;;;;;;;;12.75;8.50;;;;;;;;5031730;28;45527;-69
2021/12/29 11:19:08;;;;;;;;;10.75;9.00;;;;;;;;5030938;28;45645;-69
2021/12/29 11:21:39;;;;;;;;;8.25;7.50;;;;;;;;5045054;28;48354;-69
2021/12/29 11:24:20;;;;;;;;;10.50;10.25;;;;;;;;5035721;28;45538;-69
2021/12/29 11:26:46;;;;;;;;;14.50;11.75;;;;;;;;5034102;28;45766;-69
2021/12/29 11:29:13;;;;;;;;;11.75;6.50;;;;;;;;5040869;28;45449;-69
2021/12/29 11:31:41;;;;;;;;;7.00;7.00;;;;;;;;5045966;28;45561;-69
2021/12/29 11:34:24;;;;;;;;;8.00;4.50;;;;;;;;5034896;28;45931;-70
2021/12/29 11:36:59;;;;;;;;;5.00;4.00;;;;;;;;5036784;28;46125;-70
2021/12/29 11:39:24;;;;;;;;;5.50;4.00;;;;;;;;5050406;28;45522;-69
2021/12/29 11:41:50;;;;;;;;;2.00;2.00;;;;;;;;5040684;28;45438;-69
2021/12/29 11:44:15;;;;;;;;;1.00;1.00;;;;;;;;5039473;28;45411;-70
2021/12/29 11:46:40;;;;;;;;;2.00;2.00;;;;;;;;5054242;28;45388;-69
2021/12/29 11:49:06;;;;;;;;;3.00;2.75;;;;;;;;5036086;28;45498;-69
2021/12/29 11:51:40;;;;;;;;;5.00;1.50;;;;;;;;5042550;28;45354;-69
2021/12/29 11:54:17;;;;;;;;;3.50;2.00;;;;;;;;5043778;28;45580;-69
2021/12/29 11:56:42;;;;;;;;;4.25;1.00;;;;;;;;5040879;28;45339;-71
2021/12/29 11:59:09;;;;;;;;;2.00;2.00;;;;;;;;5038520;28;45442;-69
2021/12/29 12:01:34;;;;;;;;;1.50;1.25;;;;;;;;5036538;28;45394;-69
2021/12/29 12:04:01;;;;;;;;;1.00;1.00;;;;;;;;5035591;28;45678;-70
2021/12/29 12:06:44;;;;;;;;;1.00;1.00;;;;;;;;5040265;28;45391;-69
2021/12/29 12:09:09;;;;;;;;;2.50;1.75;;;;;;;;5010121;28;45468;-69
2021/12/29 12:11:35;;;;;;;;;2.00;1.67;;;;;;;;5032011;28;47144;-69
2021/12/29 12:14:01;;;;;;;;;3.00;1.25;;;;;;;;5032953;28;45653;-70
2021/12/29 12:16:27;;;;;;;;;2.00;2.00;;;;;;;;5020829;28;45987;-69
2021/12/29 12:18:54;;;;;;;;;2.00;2.00;;;;;;;;5034806;28;45447;-69
2021/12/29 12:21:20;;;;;;;;;2.25;1.00;;;;;;;;5034849;28;45304;-68
2021/12/29 12:23:45;;;;;;;;;1.00;1.00;;;;;;;;5033999;28;45530;-69
2021/12/29 12:26:10;;;;;;;;;0.67;0.67;;;;;;;;5042282;28;45537;-69
2021/12/29 12:28:44;;;;;;;;;1.25;1.25;;;;;;;;5034952;28;45469;-68
2021/12/29 12:31:19;;;;;;;;;1.00;1.00;;;;;;;;5033177;28;45412;-70
2021/12/29 12:33:44;;;;;;;;;2.50;1.00;;;;;;;;5034354;28;46560;-70
2021/12/29 12:36:10;;;;;;;;;0.67;0.67;;;;;;;;5035001;28;45331;-68
2021/12/29 12:38:36;;;;;;;;;2.00;2.00;;;;;;;;5034103;28;45574;-69
2021/12/29 12:41:06;;;;;;;;;1.00;1.00;;;;;;;;5040939;28;45506;-69
2021/12/29 12:43:33;;;;;;;;;2.25;1.00;;;;;;;;5034709;28;45482;-68
2021/12/29 12:45:58;;;;;;;;;2.00;1.25;;;;;;;;5031385;28;45761;-68
2021/12/29 12:48:29;;;;;;;;;1.25;0.00;;;;;;;;5034431;28;45409;-68
2021/12/29 12:50:56;;;;;;;;;1.00;1.00;;;;;;;;5035433;28;45502;-68
2021/12/29 12:53:47;;;;;;;;;1.00;1.00;;;;;;;;5034525;28;45425;-69
2021/12/29 12:56:14;;;;;;;;;2.50;0.25;;;;;;;;5032192;28;45491;-69
2021/12/29 12:58:41;;;;;;;;;1.00;1.00;;;;;;;;5034661;28;45339;-70
2021/12/29 13:01:23;;;;;;;;;1.00;1.00;;;;;;;;5036260;28;45701;-69
2021/12/29 13:03:49;;;;;;;;;2.00;2.00;;;;;;;;5034401;28;45436;-69
2021/12/29 13:06:16;;;;;;;;;1.00;0.25;;;;;;;;5031228;28;45462;-68
2021/12/29 13:08:43;;;;;;;;;0.50;0.50;;;;;;;;5032106;28;45363;-69
2021/12/29 13:11:09;;;;;;;;;0.00;0.00;;;;;;;;5031122;28;45517;-68
2021/12/29 13:13:36;;;;;;;;;1.00;1.00;;;;;;;;5032587;28;46661;-69
2021/12/29 13:16:03;;;;;;;;;2.00;1.00;;;;;;;;5033586;28;45486;-69
2021/12/29 13:18:28;;;;;;;;;1.00;1.00;;;;;;;;5032902;28;45506;-68
2021/12/29 13:20:56;;;;;;;;;2.67;1.00;;;;;;;;5032730;28;45485;-68
2021/12/29 13:23:21;;;;;;;;;1.50;1.25;;;;;;;;5033016;28;45254;-69
2021/12/29 13:25:51;;;;;;;;;1.00;1.00;;;;;;;;5032784;28;45685;-69
2021/12/29 13:28:17;;;;;;;;;1.50;1.25;;;;;;;;5033639;28;45390;-69
2021/12/29 13:30:44;;;;;;;;;1.50;1.50;;;;;;;;5015574;28;45533;-68
2021/12/29 13:33:10;;;;;;;;;3.00;1.00;;;;;;;;5022811;28;46419;-69
2021/12/29 13:35:37;;;;;;;;;2.00;1.00;;;;;;;;5025960;28;45316;-69
2021/12/29 13:38:06;;;;;;;;;1.50;1.50;;;;;;;;5032540;28;45480;-69
2021/12/29 13:40:42;;;;;;;;;1.25;1.00;;;;;;;;5031480;28;45556;-69
2021/12/29 13:43:09;;;;;;;;;1.50;1.50;;;;;;;;5032561;28;45769;-69
2021/12/29 13:45:34;;;;;;;;;1.75;1.75;;;;;;;;5032582;28;45442;-69
2021/12/29 13:48:00;;;;;;;;;1.00;1.00;;;;;;;;5030606;28;45442;-69
2021/12/29 13:50:25;;;;;;;;;0.00;0.00;;;;;;;;5031752;28;45351;-69
2021/12/29 13:52:55;;;;;;;;;0.00;0.00;;;;;;;;5032419;28;46559;-69
2021/12/29 13:55:24;;;;;;;;;1.00;1.00;;;;;;;;5032899;28;45431;-67
2021/12/29 13:57:52;;;;;;;;;2.00;0.00;;;;;;;;5033814;28;45545;-69
2021/12/29 14:00:17;;;;;;;;;1.25;1.25;;;;;;;;5032079;28;45926;-68
2021/12/29 14:02:42;;;;;;;;;0.00;0.00;;;;;;;;5030033;28;46465;-68
2021/12/29 14:05:09;;;;;;;;;1.67;0.00;;;;;;;;5031481;28;45337;-69
2021/12/29 14:07:34;;;;;;;;;0.75;0.75;;;;;;;;5013991;28;45577;-69
2021/12/29 14:10:00;;;;;;;;;3.25;1.00;;;;;;;;5034096;28;45518;-69
2021/12/29 14:12:26;;;;;;;;;4.00;3.00;;;;;;;;5032882;28;45395;-70
2021/12/29 14:14:59;;;;;;;;;2.00;1.00;;;;;;;;5031887;28;45670;-69
2021/12/29 14:17:24;;;;;;;;;2.00;1.00;;;;;;;;5031491;28;45410;-70
2021/12/29 14:19:50;;;;;;;;;1.00;1.00;;;;;;;;5033277;28;45363;-70
2021/12/29 14:22:21;;;;;;;;;2.00;1.00;;;;;;;;5031160;28;45888;-70
2021/12/29 14:24:46;;;;;;;;;2.00;1.00;;;;;;;;5032333;28;45625;-70
2021/12/29 14:27:11;;;;;;;;;1.00;1.00;;;;;;;;5033497;28;45355;-70
2021/12/29 14:29:38;;;;;;;;;0.00;0.00;;;;;;;;5032239;28;45513;-70
2021/12/29 14:32:04;;;;;;;;;1.00;1.00;;;;;;;;5030127;28;46730;-70
2021/12/29 14:34:38;;;;;;;;;1.50;1.00;;;;;;;;5031088;28;45560;-70
2021/12/29 14:37:07;;;;;;;;;2.00;1.00;;;;;;;;5029925;28;45403;-70
2021/12/29 14:39:32;;;;;;;;;1.25;1.25;;;;;;;;5031507;28;45482;-70
2021/12/29 14:42:00;;;;;;;;;1.50;1.50;;;;;;;;5031622;28;45445;-69